Weather at Dowth Hall Airfield

Public forecast

Using degrees Celsius for public forecast. Weather courtesy of forecast.io.

Closest aviation weather report (METAR) to Dowth Hall Airfield

Closest report is Dublin Airport, 18.0 nm (33.3 km) SSE.

2024/05/20 19:00 (retrieved 20 minutes ago)

EIDW 201900Z 09008KT 9999 FEW018 BKN090 15/11 Q1013 NOSIG

Closest aviation forecast (TAF) to Dowth Hall Airfield

Closest forecast is Dublin Airport, 18.0 nm (33.3 km) SSE.

2024/05/20 18:11 (retrieved 1 hour ago)

TAF EIDW 201700Z 2018/2118 08010KT 9999 FEW018 PROB40 TEMPO 2018/2020 FEW020CB BECMG 2022/2024 VRB03KT PROB30 TEMPO 2100/2109 3000 -SHRA BR FEW020CB TEMPO 2109/2114 -SHRA FEW020CB PROB40 TEMPO 2109/2114 4000 SHRA BKN012 SCT020CB BECMG 2112/2114 11007KT